createdAt,value
2022-10-25T00:02:21.525Z,17.83
2022-10-25T00:04:49.732Z,17.95
2022-10-25T00:07:17.281Z,17.65
2022-10-25T00:09:45.128Z,17.90
2022-10-25T00:12:12.610Z,17.00
2022-10-25T00:14:40.558Z,16.75
2022-10-25T00:17:08.109Z,18.65
2022-10-25T00:19:35.815Z,19.23
2022-10-25T00:22:03.346Z,19.08
2022-10-25T00:24:31.261Z,17.65
2022-10-25T00:26:58.994Z,18.55
2022-10-25T00:29:26.874Z,18.30
2022-10-25T00:31:54.382Z,18.17
2022-10-25T00:34:22.097Z,17.55
2022-10-25T00:36:49.634Z,17.58
2022-10-25T00:39:17.474Z,17.30
2022-10-25T00:41:44.950Z,18.98
2022-10-25T00:44:40.057Z,19.25
2022-10-25T00:47:19.573Z,20.15
2022-10-25T00:49:58.906Z,17.95
2022-10-25T00:52:29.904Z,20.60
2022-10-25T00:54:58.610Z,20.90
2022-10-25T00:57:34.701Z,18.95
2022-10-25T01:00:04.463Z,18.67
2022-10-25T01:02:32.205Z,21.63
2022-10-25T01:05:00.362Z,20.58
2022-10-25T01:07:27.870Z,19.13
2022-10-25T01:09:55.916Z,18.92
2022-10-25T01:12:23.369Z,20.83
2022-10-25T01:14:52.920Z,19.23
2022-10-25T01:20:27.138Z,18.20
2022-10-25T01:23:19.370Z,20.48
2022-10-25T01:26:08.487Z,21.10
2022-10-25T01:29:18.270Z,22.25
2022-10-25T01:32:01.128Z,21.25
2022-10-25T01:34:41.331Z,23.67
2022-10-25T01:37:24.602Z,19.35
2022-10-25T01:40:39.169Z,16.83
2022-10-25T01:43:39.014Z,14.68
2022-10-25T01:46:50.504Z,15.73
2022-10-25T01:50:08.817Z,14.38
2022-10-25T01:52:36.343Z,14.50
2022-10-25T01:55:08.995Z,15.77
2022-10-25T01:58:12.217Z,15.70
2022-10-25T02:01:46.449Z,13.90
2022-10-25T02:04:25.930Z,17.33
2022-10-25T02:07:20.963Z,17.33
2022-10-25T02:10:29.511Z,17.88
2022-10-25T02:13:08.057Z,17.40
2022-10-25T02:15:40.717Z,17.13
2022-10-25T02:18:16.102Z,15.65
2022-10-25T02:20:46.820Z,14.27
2022-10-25T02:23:17.825Z,15.52
2022-10-25T02:25:47.793Z,14.98
2022-10-25T02:28:19.304Z,15.30
2022-10-25T02:30:48.002Z,15.77
2022-10-25T02:33:15.942Z,15.07
2022-10-25T02:35:43.611Z,14.15
2022-10-25T02:38:11.577Z,15.18
2022-10-25T02:40:39.180Z,12.32
2022-10-25T02:43:06.967Z,14.75
2022-10-25T02:45:34.446Z,16.98
2022-10-25T02:48:02.288Z,18.30
2022-10-25T02:50:29.754Z,16.25
2022-10-25T02:52:57.533Z,19.35
2022-10-25T02:55:24.992Z,18.67
2022-10-25T02:57:52.763Z,17.25
2022-10-25T03:00:20.336Z,16.67
2022-10-25T03:02:48.301Z,16.15
2022-10-25T03:05:16.109Z,17.88
2022-10-25T03:07:43.853Z,15.98
2022-10-25T03:10:11.543Z,15.48
2022-10-25T03:12:39.333Z,15.93
2022-10-25T03:15:07.885Z,17.77
2022-10-25T03:17:35.914Z,16.00
2022-10-25T03:20:03.826Z,16.30
2022-10-25T03:22:32.085Z,16.88
2022-10-25T03:24:59.583Z,15.20
2022-10-25T03:27:27.544Z,15.52
2022-10-25T03:29:55.097Z,16.65
2022-10-25T03:32:22.876Z,18.30
2022-10-25T03:34:50.366Z,17.33
2022-10-25T03:37:18.084Z,16.90
2022-10-25T03:39:45.684Z,17.73
2022-10-25T03:42:13.557Z,18.30
2022-10-25T03:44:41.175Z,17.20
2022-10-25T03:47:08.907Z,16.92
2022-10-25T03:49:36.645Z,17.52
2022-10-25T03:52:07.321Z,17.23
2022-10-25T03:54:35.442Z,15.90
2022-10-25T03:57:04.144Z,17.30
2022-10-25T03:59:31.666Z,17.00
2022-10-25T04:02:00.437Z,17.17
2022-10-25T04:04:28.174Z,16.90
2022-10-25T04:06:55.975Z,17.25
2022-10-25T04:09:23.485Z,18.30
2022-10-25T04:11:51.258Z,19.15
2022-10-25T04:14:18.724Z,17.80
2022-10-25T04:16:46.558Z,18.60
2022-10-25T04:19:14.117Z,18.77
2022-10-25T04:21:42.463Z,15.77
2022-10-25T04:24:10.281Z,17.20
2022-10-25T04:26:38.858Z,17.30
2022-10-25T04:29:06.828Z,16.67
2022-10-25T04:31:34.704Z,16.80
2022-10-25T04:34:02.174Z,16.02
2022-10-25T04:36:31.238Z,15.98
2022-10-25T04:38:58.849Z,16.50
2022-10-25T04:41:26.910Z,16.38
2022-10-25T04:43:54.333Z,16.45
2022-10-25T04:46:22.223Z,15.60
2022-10-25T04:48:49.919Z,16.88
2022-10-25T04:51:18.025Z,15.32
2022-10-25T04:53:45.628Z,15.65
2022-10-25T04:56:14.528Z,15.95
2022-10-25T04:58:42.331Z,15.20
2022-10-25T05:01:14.761Z,17.50
2022-10-25T05:03:42.901Z,17.63
2022-10-25T05:06:18.118Z,16.60
2022-10-25T05:08:51.065Z,14.77
2022-10-25T05:11:22.029Z,14.95
2022-10-25T05:13:49.852Z,16.85
2022-10-25T05:16:23.504Z,18.33
2022-10-25T05:18:55.107Z,16.80
2022-10-25T05:21:31.503Z,17.00
2022-10-25T05:24:02.032Z,17.85
2022-10-25T05:26:31.406Z,16.27
2022-10-25T05:28:59.174Z,15.88
2022-10-25T05:31:30.264Z,15.82
2022-10-25T05:34:01.179Z,19.83
2022-10-25T05:36:29.587Z,17.88
2022-10-25T05:38:58.336Z,18.27
2022-10-25T05:41:26.052Z,17.83
2022-10-25T05:43:53.637Z,16.90
2022-10-25T05:46:23.590Z,17.10
2022-10-25T05:48:53.710Z,17.27
2022-10-25T05:51:35.193Z,16.20
2022-10-25T05:54:12.588Z,18.00
2022-10-25T05:56:42.498Z,16.58
2022-10-25T05:59:14.373Z,17.38
2022-10-25T06:01:46.085Z,16.50
2022-10-25T06:04:15.483Z,17.50
2022-10-25T06:06:45.806Z,17.27
2022-10-25T06:09:14.310Z,16.45
2022-10-25T06:11:42.253Z,16.63
2022-10-25T06:14:11.211Z,15.98
2022-10-25T06:16:39.186Z,16.73
2022-10-25T06:19:08.106Z,15.18
2022-10-25T06:21:36.891Z,15.77
2022-10-25T06:24:04.915Z,16.25
2022-10-25T06:26:33.104Z,16.80
2022-10-25T06:29:04.125Z,15.13
2022-10-25T06:31:33.186Z,16.38
2022-10-25T06:34:02.302Z,16.75
2022-10-25T06:39:05.862Z,13.55
2022-10-25T06:41:38.650Z,15.00
2022-10-25T06:44:07.960Z,15.18
2022-10-25T06:49:27.055Z,13.07
2022-10-25T06:51:55.100Z,12.88
2022-10-25T06:54:22.730Z,11.55
2022-10-25T06:56:50.548Z,12.57
2022-10-25T06:59:19.475Z,11.80
2022-10-25T07:01:47.835Z,11.43
2022-10-25T07:04:16.044Z,13.00
2022-10-25T07:06:44.078Z,10.80
2022-10-25T07:09:13.250Z,12.07
2022-10-25T07:14:09.535Z,10.85
2022-10-25T07:16:37.606Z,11.18
2022-10-25T07:19:05.363Z,10.90
2022-10-25T07:21:33.825Z,10.48
2022-10-25T07:24:01.837Z,9.27
2022-10-25T07:26:33.849Z,7.00
2022-10-25T07:29:04.306Z,4.97
2022-10-25T07:31:38.714Z,5.82
2022-10-25T07:34:06.914Z,7.30
2022-10-25T07:36:34.899Z,7.32
2022-10-25T07:39:02.394Z,6.55
2022-10-25T07:41:30.109Z,7.28
2022-10-25T07:43:57.785Z,5.88
2022-10-25T07:46:25.825Z,6.85
2022-10-25T07:48:53.453Z,7.78
2022-10-25T07:51:21.451Z,6.75
2022-10-25T07:53:50.059Z,11.48
2022-10-25T07:56:23.172Z,11.98
2022-10-25T07:58:54.497Z,8.07
2022-10-25T08:01:26.428Z,9.18
2022-10-25T08:03:55.506Z,9.07
2022-10-25T08:06:25.525Z,10.38
2022-10-25T08:08:53.347Z,8.82
2022-10-25T08:11:21.438Z,8.25
2022-10-25T08:13:50.744Z,7.30
2022-10-25T08:16:19.069Z,9.13
2022-10-25T08:18:46.830Z,8.20
2022-10-25T08:21:15.071Z,9.93
2022-10-25T08:23:42.826Z,7.60
2022-10-25T08:26:10.845Z,7.88
2022-10-25T08:28:38.407Z,8.35
2022-10-25T08:31:06.466Z,8.90
2022-10-25T08:33:34.388Z,8.38
2022-10-25T08:36:03.023Z,7.95
2022-10-25T08:38:30.828Z,8.57
2022-10-25T08:41:17.485Z,7.80
2022-10-25T08:44:31.545Z,7.07
2022-10-25T08:47:20.105Z,7.70
2022-10-25T08:50:05.955Z,7.63
2022-10-25T08:52:48.367Z,6.85
2022-10-25T08:55:34.690Z,6.85
2022-10-25T08:58:15.517Z,7.28
2022-10-25T09:00:47.268Z,7.90
2022-10-25T09:03:26.454Z,6.60
2022-10-25T09:05:56.592Z,5.95
2022-10-25T09:08:59.713Z,6.30
2022-10-25T09:12:10.849Z,6.22
2022-10-25T09:15:32.762Z,5.90
2022-10-25T09:18:09.170Z,5.95
2022-10-25T09:20:52.237Z,7.20
2022-10-25T09:23:31.285Z,6.07
2022-10-25T09:26:23.071Z,7.65
2022-10-25T09:29:42.101Z,7.25
2022-10-25T09:32:39.706Z,6.88
2022-10-25T09:35:33.159Z,7.05
2022-10-25T09:38:11.738Z,7.75
2022-10-25T09:40:56.836Z,6.90
2022-10-25T09:43:39.603Z,6.43
2022-10-25T09:46:23.445Z,7.57
2022-10-25T09:49:02.956Z,7.68
2022-10-25T09:51:44.650Z,8.05
2022-10-25T09:55:06.781Z,7.93
2022-10-25T09:57:34.283Z,6.72
2022-10-25T10:00:02.049Z,6.88
2022-10-25T10:02:41.243Z,7.80
2022-10-25T10:05:18.227Z,5.88
2022-10-25T10:07:47.821Z,7.35
2022-10-25T10:10:32.364Z,8.27
2022-10-25T10:13:24.948Z,7.95
2022-10-25T10:16:04.813Z,8.70
2022-10-25T10:18:34.287Z,7.78
2022-10-25T10:21:14.398Z,8.43
2022-10-25T10:23:47.614Z,7.63
2022-10-25T10:26:35.305Z,8.68
2022-10-25T10:29:22.257Z,8.57
2022-10-25T10:32:00.859Z,8.52
2022-10-25T10:34:43.998Z,8.27
2022-10-25T10:37:22.063Z,8.15
2022-10-25T10:40:24.348Z,5.60
2022-10-25T10:42:54.680Z,5.13
2022-10-25T10:45:24.614Z,6.15
2022-10-25T10:47:52.189Z,6.32
2022-10-25T10:50:28.848Z,6.22
2022-10-25T10:53:02.922Z,5.57
2022-10-25T10:55:46.451Z,6.50
2022-10-25T10:58:25.291Z,5.88
2022-10-25T11:01:04.825Z,5.47
2022-10-25T11:03:37.393Z,5.63
2022-10-25T11:06:28.017Z,7.90
2022-10-25T11:09:15.720Z,6.53
2022-10-25T11:11:44.465Z,8.63
2022-10-25T11:14:16.828Z,8.43
2022-10-25T11:17:14.619Z,7.60
2022-10-25T11:20:18.683Z,6.82
2022-10-25T11:23:36.607Z,7.50
2022-10-25T11:26:15.988Z,6.50
2022-10-25T11:32:18.508Z,7.80
2022-10-25T11:35:11.115Z,6.07
2022-10-25T11:37:53.707Z,6.40
2022-10-25T11:40:35.079Z,5.70
2022-10-25T11:43:49.561Z,6.18
2022-10-25T11:46:42.148Z,7.68
2022-10-25T11:49:47.990Z,5.93
2022-10-25T11:52:33.393Z,5.85
2022-10-25T11:55:50.285Z,5.60
2022-10-25T11:58:54.677Z,5.40
2022-10-25T12:01:41.627Z,5.05
2022-10-25T12:04:40.872Z,4.38
2022-10-25T12:08:02.169Z,3.85
2022-10-25T12:10:48.084Z,3.35
2022-10-25T12:13:28.885Z,4.15
2022-10-25T12:15:58.791Z,4.30
2022-10-25T12:18:53.510Z,4.03
2022-10-25T12:21:27.956Z,4.00
2022-10-25T12:23:56.040Z,2.88
2022-10-25T12:26:30.206Z,3.45
2022-10-25T12:29:03.330Z,3.53
2022-10-25T12:31:46.344Z,3.72
2022-10-25T12:34:44.839Z,2.90
2022-10-25T12:37:57.862Z,3.00
2022-10-25T12:40:29.552Z,2.88
2022-10-25T12:43:21.616Z,2.30
2022-10-25T12:46:32.700Z,2.70
2022-10-25T12:49:46.690Z,2.70
2022-10-25T12:52:38.546Z,2.20
2022-10-25T12:55:42.805Z,2.50
2022-10-25T12:58:40.649Z,2.35
2022-10-25T13:01:15.107Z,2.40
2022-10-25T13:04:00.858Z,3.40
2022-10-25T13:06:37.734Z,3.08
2022-10-25T13:09:13.540Z,3.35
2022-10-25T13:11:48.007Z,3.80
2022-10-25T13:14:34.040Z,3.42
2022-10-25T13:17:16.910Z,4.10
2022-10-25T13:19:54.952Z,3.88
2022-10-25T13:22:35.626Z,3.30
2022-10-25T13:25:18.420Z,4.30
2022-10-25T13:28:11.765Z,3.20
2022-10-25T13:30:39.691Z,3.03
2022-10-25T13:33:21.506Z,2.80
2022-10-25T13:35:49.139Z,2.35
2022-10-25T13:38:25.004Z,2.53
2022-10-25T13:41:12.702Z,1.88
2022-10-25T13:44:06.745Z,1.30
2022-10-25T13:46:39.581Z,0.82
2022-10-25T13:49:41.039Z,0.98
2022-10-25T13:52:32.307Z,1.13
2022-10-25T13:55:02.915Z,0.75
2022-10-25T13:57:58.512Z,1.10
2022-10-25T14:00:38.351Z,1.25
2022-10-25T14:03:08.902Z,0.63
2022-10-25T14:05:55.273Z,1.25
2022-10-25T14:08:44.022Z,0.80
2022-10-25T14:11:42.386Z,0.52
2022-10-25T14:14:22.364Z,1.38
2022-10-25T14:17:27.998Z,0.88
2022-10-25T14:20:02.668Z,1.23
2022-10-25T14:22:44.100Z,1.00
2022-10-25T14:25:17.730Z,1.80
2022-10-25T14:27:45.471Z,1.55
2022-10-25T14:30:34.714Z,1.55
2022-10-25T14:33:06.289Z,0.75
2022-10-25T14:35:45.391Z,0.80
2022-10-25T14:38:28.773Z,0.80
2022-10-25T14:41:02.660Z,1.42
2022-10-25T14:43:36.951Z,2.03
2022-10-25T14:46:15.901Z,1.45
2022-10-25T14:48:46.993Z,2.10
2022-10-25T14:51:27.956Z,1.30
2022-10-25T14:54:04.283Z,2.55
2022-10-25T14:56:40.920Z,2.67
2022-10-25T14:59:50.165Z,3.05
2022-10-25T15:02:32.675Z,2.17
2022-10-25T15:05:02.433Z,2.58
2022-10-25T15:07:44.685Z,2.55
2022-10-25T15:10:30.743Z,6.85
2022-10-25T15:13:21.107Z,6.63
2022-10-25T15:15:51.415Z,5.47
2022-10-25T15:18:37.617Z,3.92
2022-10-25T15:21:17.613Z,2.60
2022-10-25T15:24:16.526Z,2.47
2022-10-25T15:27:02.652Z,2.17
2022-10-25T15:29:42.369Z,2.92
2022-10-25T15:32:19.762Z,3.30
2022-10-25T15:34:51.449Z,3.80
2022-10-25T15:37:22.232Z,5.53
2022-10-25T15:39:53.140Z,4.65
2022-10-25T15:42:23.968Z,16.45
2022-10-25T15:44:51.721Z,17.45
2022-10-25T15:47:34.644Z,11.18
2022-10-25T15:50:10.857Z,7.30
2022-10-25T15:52:38.373Z,8.18
2022-10-25T15:55:27.940Z,6.95
2022-10-25T15:57:55.550Z,5.78
2022-10-25T16:00:28.023Z,5.13
2022-10-25T16:02:57.151Z,6.00
2022-10-25T16:05:33.489Z,7.63
2022-10-25T16:08:01.618Z,6.25
2022-10-25T16:10:30.825Z,6.25
2022-10-25T16:13:04.525Z,4.35
2022-10-25T16:15:32.794Z,5.60
2022-10-25T16:18:00.637Z,4.20
2022-10-25T16:20:30.924Z,4.78
2022-10-25T16:22:58.589Z,4.50
2022-10-25T16:25:30.485Z,3.97
2022-10-25T16:28:00.924Z,4.05
2022-10-25T16:30:35.359Z,4.60
2022-10-25T16:33:04.126Z,4.70
2022-10-25T16:35:31.862Z,4.95
2022-10-25T16:37:59.672Z,4.45
2022-10-25T16:40:28.359Z,5.07
2022-10-25T16:42:58.352Z,4.33
2022-10-25T16:45:31.706Z,3.97
2022-10-25T16:47:59.782Z,4.03
2022-10-25T16:50:30.697Z,4.85
2022-10-25T16:53:01.350Z,4.18
2022-10-25T16:55:30.603Z,3.80
2022-10-25T16:57:59.868Z,4.88
2022-10-25T17:00:32.441Z,4.20
2022-10-25T17:03:00.082Z,6.53
2022-10-25T17:05:30.392Z,5.22
2022-10-25T17:07:58.073Z,6.68
2022-10-25T17:10:26.261Z,5.45
2022-10-25T17:13:03.996Z,7.22
2022-10-25T17:15:33.193Z,6.80
2022-10-25T17:18:00.719Z,6.88
2022-10-25T17:20:29.062Z,7.95
2022-10-25T17:22:57.337Z,8.13
2022-10-25T17:25:25.157Z,12.70
2022-10-25T17:27:54.066Z,8.70
2022-10-25T17:30:22.042Z,7.85
2022-10-25T17:32:50.164Z,6.75
2022-10-25T17:35:19.719Z,4.93
2022-10-25T17:37:48.111Z,18.85
2022-10-25T17:40:16.096Z,7.75
2022-10-25T17:42:43.601Z,4.50
2022-10-25T17:45:11.588Z,4.43
2022-10-25T17:47:42.601Z,10.38
2022-10-25T17:50:12.871Z,7.55
2022-10-25T17:52:42.275Z,8.55
2022-10-25T17:55:13.802Z,4.85
2022-10-25T17:57:41.336Z,2.45
2022-10-25T18:00:10.401Z,10.25
2022-10-25T18:02:44.026Z,7.72
2022-10-25T18:05:20.609Z,3.58
2022-10-25T18:07:49.535Z,2.85
2022-10-25T18:10:17.591Z,3.35
2022-10-25T18:12:46.280Z,2.28
2022-10-25T18:15:14.448Z,1.48
2022-10-25T18:17:43.166Z,2.38
2022-10-25T18:20:11.401Z,2.97
2022-10-25T18:22:38.947Z,2.75
2022-10-25T18:25:07.865Z,3.25
2022-10-25T18:27:35.748Z,3.90
2022-10-25T18:30:04.844Z,2.25
2022-10-25T18:32:36.161Z,2.53
2022-10-25T18:35:04.500Z,2.85
2022-10-25T18:37:33.020Z,2.72
2022-10-25T18:40:00.754Z,2.85
2022-10-25T18:42:28.278Z,3.85
2022-10-25T18:44:56.078Z,2.72
2022-10-25T18:47:23.752Z,2.72
2022-10-25T18:49:51.569Z,2.30
2022-10-25T18:52:19.090Z,2.40
2022-10-25T18:54:46.970Z,2.30
2022-10-25T18:57:15.636Z,2.20
2022-10-25T18:59:43.483Z,3.65
2022-10-25T19:02:11.884Z,2.72
2022-10-25T19:04:40.437Z,2.92
2022-10-25T19:07:07.894Z,3.25
2022-10-25T19:09:35.654Z,4.07
2022-10-25T19:12:03.198Z,4.15
2022-10-25T19:14:30.959Z,4.15
2022-10-25T19:16:58.481Z,3.75
2022-10-25T19:19:26.801Z,3.25
2022-10-25T19:21:55.050Z,3.00
2022-10-25T19:24:23.110Z,3.60
2022-10-25T19:26:51.029Z,3.67
2022-10-25T19:29:19.110Z,3.47
2022-10-25T19:31:46.674Z,3.88
2022-10-25T19:34:14.423Z,3.63
2022-10-25T19:36:41.945Z,2.90
2022-10-25T19:39:10.527Z,4.03
2022-10-25T19:41:38.154Z,3.27
2022-10-25T19:44:05.980Z,3.17
2022-10-25T19:46:33.638Z,3.90
2022-10-25T19:49:01.896Z,3.45
2022-10-25T19:51:44.227Z,3.80
2022-10-25T19:54:21.202Z,4.03
2022-10-25T19:57:14.273Z,4.20
2022-10-25T19:59:46.625Z,3.85
2022-10-25T20:02:14.843Z,4.50
2022-10-25T20:04:47.727Z,4.30
2022-10-25T20:07:16.755Z,4.88
2022-10-25T20:09:44.703Z,5.18
2022-10-25T20:12:12.822Z,5.25
2022-10-25T20:14:40.652Z,4.53
2022-10-25T20:17:09.054Z,4.00
2022-10-25T20:19:36.791Z,5.00
2022-10-25T20:22:05.608Z,4.53
2022-10-25T20:24:33.560Z,4.55
2022-10-25T20:27:02.708Z,4.45
2022-10-25T20:31:57.928Z,10.32
2022-10-25T20:34:25.809Z,4.40
2022-10-25T20:36:53.749Z,3.63
2022-10-25T20:39:21.543Z,4.20
2022-10-25T20:41:49.029Z,4.78
2022-10-25T20:44:57.960Z,5.05
2022-10-25T20:47:39.861Z,3.78
2022-10-25T20:50:26.363Z,3.00
2022-10-25T20:53:12.102Z,3.50
2022-10-25T20:55:45.350Z,2.50
2022-10-25T20:58:18.637Z,3.90
2022-10-25T21:01:14.841Z,2.88
2022-10-25T21:04:25.889Z,3.53
2022-10-25T21:07:51.644Z,3.58
2022-10-25T21:10:36.914Z,3.42
2022-10-25T21:14:20.785Z,3.17
2022-10-25T21:16:55.070Z,2.83
2022-10-25T21:19:29.839Z,3.90
2022-10-25T21:22:10.375Z,4.10
2022-10-25T21:24:41.939Z,4.57
2022-10-25T21:27:10.503Z,4.00
2022-10-25T21:29:38.397Z,3.33
2022-10-25T21:32:05.987Z,3.65
2022-10-25T21:34:33.759Z,3.55
2022-10-25T21:37:23.078Z,3.85
2022-10-25T21:40:01.767Z,3.90
2022-10-25T21:42:40.533Z,3.85
2022-10-25T21:45:15.214Z,3.13
2022-10-25T21:47:46.199Z,3.80
2022-10-25T21:50:23.837Z,4.25
2022-10-25T21:52:58.525Z,3.67
2022-10-25T21:55:34.077Z,3.58
2022-10-25T21:58:05.165Z,4.15
2022-10-25T22:00:36.485Z,3.35
2022-10-25T22:03:04.223Z,2.72
2022-10-25T22:05:33.329Z,3.50
2022-10-25T22:08:00.907Z,3.63
2022-10-25T22:10:29.739Z,3.43
2022-10-25T22:12:58.961Z,5.03
2022-10-25T22:15:44.570Z,3.40
2022-10-25T22:18:12.605Z,3.30
2022-10-25T22:20:42.883Z,2.77
2022-10-25T22:23:21.697Z,3.15
2022-10-25T22:25:56.494Z,4.03
2022-10-25T22:28:27.440Z,3.67
2022-10-25T22:31:07.220Z,3.40
2022-10-25T22:36:17.940Z,3.13
2022-10-25T22:38:48.246Z,2.75
2022-10-25T22:41:24.380Z,2.72
2022-10-25T22:43:52.693Z,2.90
2022-10-25T22:46:26.443Z,2.57
2022-10-25T22:48:57.282Z,3.33
2022-10-25T22:51:27.916Z,3.03
2022-10-25T22:53:55.976Z,2.95
2022-10-25T22:56:26.554Z,2.83
2022-10-25T22:58:57.536Z,2.88
2022-10-25T23:01:35.079Z,3.42
2022-10-25T23:04:06.815Z,3.60
2022-10-25T23:06:39.052Z,4.03
2022-10-25T23:09:10.677Z,4.25
2022-10-25T23:11:41.419Z,3.30
2022-10-25T23:14:14.822Z,4.70
2022-10-25T23:16:46.368Z,3.65
2022-10-25T23:19:13.996Z,4.43
2022-10-25T23:21:41.838Z,3.65
2022-10-25T23:24:09.643Z,2.92
2022-10-25T23:26:37.550Z,8.55
2022-10-25T23:29:05.900Z,4.20
2022-10-25T23:31:33.843Z,4.35
2022-10-25T23:34:01.927Z,3.75
2022-10-25T23:36:37.778Z,3.42
2022-10-25T23:39:07.661Z,3.33
2022-10-25T23:41:35.742Z,3.92
2022-10-25T23:44:03.551Z,4.50
2022-10-25T23:46:31.407Z,4.38
2022-10-25T23:48:59.013Z,4.97
2022-10-25T23:51:27.014Z,4.78
2022-10-25T23:53:54.859Z,4.63
2022-10-25T23:56:22.804Z,4.85
2022-10-25T23:58:53.738Z,5.47
